Time;durP1;ratioP1;P1;durP2;ratioP2;P2;SDS_P1;SDS_P2;PMS_P1;PMS_P2;Temp;Humidity;BMP_temperature;BMP_pressure;BME280_temperature;BME280_humidity;BME280_pressure;Samples;Min_cycle;Max_cycle;Signal;HPM_P1;HPM_P2
2022/01/09 00:01:23;;;;;;;10.52;5.00;;;;;;;;;;5014126;28;20170;-60
2022/01/09 00:03:49;;;;;;;10.45;4.90;;;;;;;;;;5013953;28;20256;-60
2022/01/09 00:06:15;;;;;;;9.00;4.60;;;;;;;;;;5013853;28;20194;-59
2022/01/09 00:08:41;;;;;;;10.02;5.00;;;;;;;;;;5013808;28;20551;-58
2022/01/09 00:11:07;;;;;;;9.38;4.72;;;;;;;;;;5014099;28;20256;-62
2022/01/09 00:13:33;;;;;;;6.90;4.40;;;;;;;;;;5013686;28;20245;-62
2022/01/09 00:15:59;;;;;;;9.18;4.15;;;;;;;;;;5013616;28;20281;-61
2022/01/09 00:18:25;;;;;;;7.65;4.40;;;;;;;;;;5015332;28;20490;-61
2022/01/09 00:20:51;;;;;;;7.68;4.50;;;;;;;;;;5017567;28;20170;-61
2022/01/09 00:23:17;;;;;;;8.30;4.28;;;;;;;;;;5017405;28;20170;-61
2022/01/09 00:25:43;;;;;;;7.38;4.07;;;;;;;;;;5017788;28;20162;-61
2022/01/09 00:28:09;;;;;;;7.53;4.20;;;;;;;;;;5017460;28;20170;-61
2022/01/09 00:30:35;;;;;;;5.72;4.15;;;;;;;;;;5017732;28;20174;-61
2022/01/09 00:33:01;;;;;;;7.68;4.50;;;;;;;;;;5017390;28;20209;-61
2022/01/09 00:35:27;;;;;;;7.45;4.22;;;;;;;;;;5017599;28;20213;-61
2022/01/09 00:37:53;;;;;;;7.18;4.05;;;;;;;;;;5017189;28;20654;-62
2022/01/09 00:40:19;;;;;;;6.45;3.95;;;;;;;;;;5017220;28;20197;-60
2022/01/09 00:42:45;;;;;;;7.13;4.32;;;;;;;;;;5017362;28;20166;-59
2022/01/09 00:45:14;;;;;;;9.43;4.32;;;;;;;;;;5017168;28;20162;-62
2022/01/09 00:47:40;;;;;;;7.00;3.97;;;;;;;;;;5017246;28;20175;-59
2022/01/09 00:50:07;;;;;;;9.00;4.40;;;;;;;;;;5016956;28;20183;-59
2022/01/09 00:52:32;;;;;;;7.00;4.00;;;;;;;;;;5016827;28;20625;-61
2022/01/09 00:54:58;;;;;;;6.90;3.80;;;;;;;;;;5017028;28;20182;-60
2022/01/09 00:57:24;;;;;;;9.57;4.53;;;;;;;;;;5017076;28;20626;-60
2022/01/09 00:59:50;;;;;;;6.82;3.92;;;;;;;;;;5016992;28;20162;-60
2022/01/09 01:02:16;;;;;;;7.03;3.95;;;;;;;;;;5016771;28;20190;-61
2022/01/09 01:04:42;;;;;;;8.77;4.60;;;;;;;;;;5016722;28;20194;-62
2022/01/09 01:07:08;;;;;;;6.95;4.50;;;;;;;;;;5016790;28;20185;-62
2022/01/09 01:09:34;;;;;;;7.97;4.40;;;;;;;;;;5016785;28;20159;-61
2022/01/09 01:12:00;;;;;;;7.22;4.30;;;;;;;;;;5016870;28;20197;-60
2022/01/09 01:14:27;;;;;;;6.78;4.00;;;;;;;;;;5016728;28;20170;-61
2022/01/09 01:16:56;;;;;;;8.98;4.50;;;;;;;;;;5016740;28;20170;-61
2022/01/09 01:19:22;;;;;;;6.35;4.47;;;;;;;;;;5017101;28;20173;-59
2022/01/09 01:21:48;;;;;;;8.30;4.50;;;;;;;;;;5016385;28;20162;-60
2022/01/09 01:24:15;;;;;;;6.90;4.15;;;;;;;;;;5016216;28;20626;-60
2022/01/09 01:26:41;;;;;;;8.88;4.68;;;;;;;;;;5016339;28;20610;-60
2022/01/09 01:29:07;;;;;;;9.63;4.30;;;;;;;;;;5015794;28;20257;-59
2022/01/09 01:31:32;;;;;;;9.80;4.47;;;;;;;;;;5016234;28;20194;-59
2022/01/09 01:33:58;;;;;;;7.05;4.53;;;;;;;;;;5016204;28;20672;-59
2022/01/09 01:36:24;;;;;;;7.32;4.28;;;;;;;;;;5016683;28;20259;-58
2022/01/09 01:38:50;;;;;;;6.78;4.30;;;;;;;;;;5016554;28;20176;-60
2022/01/09 01:41:16;;;;;;;7.75;4.47;;;;;;;;;;5016738;28;20245;-60
2022/01/09 01:43:42;;;;;;;8.90;4.20;;;;;;;;;;5016215;28;20174;-62
2022/01/09 01:46:08;;;;;;;7.95;4.47;;;;;;;;;;5016421;28;20245;-61
2022/01/09 01:48:34;;;;;;;7.50;3.88;;;;;;;;;;5016000;28;20174;-60
2022/01/09 01:51:00;;;;;;;8.63;4.00;;;;;;;;;;5016154;28;20314;-60
2022/01/09 01:53:26;;;;;;;6.32;4.18;;;;;;;;;;5015622;28;20248;-60
2022/01/09 01:55:55;;;;;;;9.18;4.22;;;;;;;;;;5015978;28;20280;-59
2022/01/09 01:58:21;;;;;;;7.93;4.07;;;;;;;;;;5015588;28;20163;-59
2022/01/09 02:00:48;;;;;;;7.03;4.07;;;;;;;;;;5015725;28;20171;-59
2022/01/09 02:03:14;;;;;;;7.30;4.97;;;;;;;;;;5015666;28;20586;-60
2022/01/09 02:05:43;;;;;;;6.43;3.95;;;;;;;;;;5015836;28;20174;-61
2022/01/09 02:08:09;;;;;;;8.02;3.92;;;;;;;;;;5015595;28;20174;-60
2022/01/09 02:10:38;;;;;;;7.60;4.32;;;;;;;;;;5015427;28;20229;-60
2022/01/09 02:13:04;;;;;;;8.05;4.63;;;;;;;;;;5015621;28;20194;-60
2022/01/09 02:15:35;;;;;;;10.68;4.50;;;;;;;;;;5016095;28;20642;-60
2022/01/09 02:18:02;;;;;;;7.47;4.15;;;;;;;;;;5015693;28;20180;-61
2022/01/09 02:20:27;;;;;;;6.75;4.10;;;;;;;;;;5015581;28;20170;-61
2022/01/09 02:22:54;;;;;;;8.35;4.07;;;;;;;;;;5015103;28;20225;-61
2022/01/09 02:25:19;;;;;;;6.97;4.47;;;;;;;;;;5015086;28;20559;-60
2022/01/09 02:27:45;;;;;;;7.97;4.57;;;;;;;;;;5015290;28;20177;-61
2022/01/09 02:30:12;;;;;;;5.88;4.07;;;;;;;;;;5015372;28;20209;-61
2022/01/09 02:32:38;;;;;;;5.95;4.18;;;;;;;;;;5015162;28;20290;-61
2022/01/09 02:35:04;;;;;;;8.45;4.28;;;;;;;;;;5015348;28;20289;-59
2022/01/09 02:37:30;;;;;;;7.35;3.97;;;;;;;;;;5015388;28;20178;-59
2022/01/09 02:39:56;;;;;;;5.10;3.63;;;;;;;;;;5014858;28;20175;-59
2022/01/09 02:42:24;;;;;;;6.38;4.30;;;;;;;;;;5014081;28;20166;-61
2022/01/09 02:44:50;;;;;;;8.00;3.85;;;;;;;;;;5015018;28;20200;-60
2022/01/09 02:47:17;;;;;;;8.20;4.63;;;;;;;;;;5015032;28;20184;-60
2022/01/09 02:49:48;;;;;;;6.00;4.18;;;;;;;;;;5014936;28;20170;-60
2022/01/09 02:52:28;;;;;;;8.68;3.78;;;;;;;;;;5014874;28;20161;-60
2022/01/09 02:55:10;;;;;;;5.10;4.05;;;;;;;;;;5014792;28;20194;-61
2022/01/09 02:57:36;;;;;;;6.60;4.00;;;;;;;;;;5014938;28;20151;-60
2022/01/09 03:00:03;;;;;;;5.90;3.90;;;;;;;;;;5014471;28;20166;-61
2022/01/09 03:02:29;;;;;;;8.30;3.70;;;;;;;;;;5014499;28;20253;-61
2022/01/09 03:04:55;;;;;;;7.53;3.88;;;;;;;;;;5014424;28;20292;-61
2022/01/09 03:07:21;;;;;;;6.40;4.10;;;;;;;;;;5014732;28;20586;-61
2022/01/09 03:09:47;;;;;;;5.55;3.70;;;;;;;;;;5014298;28;20249;-61
2022/01/09 03:12:13;;;;;;;6.30;3.95;;;;;;;;;;5014639;28;20174;-61
2022/01/09 03:14:39;;;;;;;6.28;3.90;;;;;;;;;;5014122;28;20171;-61
2022/01/09 03:17:05;;;;;;;6.30;3.60;;;;;;;;;;5014283;28;20502;-60
2022/01/09 03:19:31;;;;;;;6.05;3.65;;;;;;;;;;5014201;28;20166;-60
2022/01/09 03:21:57;;;;;;;7.47;3.90;;;;;;;;;;5014186;28;20158;-60
2022/01/09 03:24:22;;;;;;;8.95;3.88;;;;;;;;;;5013989;28;20193;-60
2022/01/09 03:26:48;;;;;;;5.85;3.75;;;;;;;;;;5014082;28;20174;-61
2022/01/09 03:29:14;;;;;;;8.35;3.75;;;;;;;;;;5013935;28;20603;-60
2022/01/09 03:31:40;;;;;;;6.45;3.67;;;;;;;;;;5014057;28;20174;-60
2022/01/09 03:34:06;;;;;;;5.28;3.50;;;;;;;;;;5013964;28;20174;-61
2022/01/09 03:36:32;;;;;;;6.13;3.85;;;;;;;;;;5013887;28;20630;-61
2022/01/09 03:38:58;;;;;;;6.95;3.75;;;;;;;;;;5013779;28;20164;-61
2022/01/09 03:41:24;;;;;;;7.00;3.58;;;;;;;;;;5013911;28;20633;-61
2022/01/09 03:43:50;;;;;;;7.65;3.78;;;;;;;;;;5013865;28;20216;-61
2022/01/09 03:46:15;;;;;;;4.32;3.45;;;;;;;;;;5013915;28;20188;-61
2022/01/09 03:48:41;;;;;;;5.38;3.53;;;;;;;;;;5013768;28;20180;-61
2022/01/09 03:51:09;;;;;;;5.28;3.22;;;;;;;;;;5014151;28;20181;-61
2022/01/09 03:53:35;;;;;;;7.60;4.07;;;;;;;;;;5013374;28;20209;-60
2022/01/09 03:56:00;;;;;;;6.05;3.60;;;;;;;;;;5014046;28;20205;-61
2022/01/09 03:58:26;;;;;;;5.70;3.75;;;;;;;;;;5013728;28;20162;-60
2022/01/09 04:00:52;;;;;;;5.75;3.70;;;;;;;;;;5014139;28;20209;-61
2022/01/09 04:03:18;;;;;;;5.43;3.42;;;;;;;;;;5014007;28;20192;-59
2022/01/09 04:05:44;;;;;;;5.72;3.55;;;;;;;;;;5013642;28;20185;-60
2022/01/09 04:08:10;;;;;;;6.97;4.05;;;;;;;;;;5013608;28;20225;-61
2022/01/09 04:10:41;;;;;;;5.10;3.40;;;;;;;;;;5013507;28;20167;-61
2022/01/09 04:13:07;;;;;;;4.50;3.08;;;;;;;;;;5014195;28;20170;-61
2022/01/09 04:15:33;;;;;;;5.90;3.70;;;;;;;;;;5013337;28;20197;-61
2022/01/09 04:18:00;;;;;;;6.72;3.20;;;;;;;;;;5013567;28;20166;-61
2022/01/09 04:20:27;;;;;;;5.22;3.33;;;;;;;;;;5014391;28;20204;-61
2022/01/09 04:22:53;;;;;;;6.57;3.33;;;;;;;;;;5013935;28;20224;-60
2022/01/09 04:25:20;;;;;;;5.38;3.45;;;;;;;;;;5013478;28;20281;-58
2022/01/09 04:27:47;;;;;;;8.32;3.10;;;;;;;;;;5013728;28;20174;-60
2022/01/09 04:30:13;;;;;;;6.35;2.90;;;;;;;;;;5013382;28;20260;-61
2022/01/09 04:32:39;;;;;;;6.38;3.65;;;;;;;;;;5013691;28;20598;-59
2022/01/09 04:35:06;;;;;;;6.63;3.75;;;;;;;;;;5013430;28;20233;-60
2022/01/09 04:37:33;;;;;;;6.88;3.38;;;;;;;;;;5013372;28;20163;-58
2022/01/09 04:39:59;;;;;;;4.25;3.08;;;;;;;;;;5013275;28;20167;-60
2022/01/09 04:42:33;;;;;;;4.53;2.90;;;;;;;;;;5013266;28;20179;-61
2022/01/09 04:44:59;;;;;;;4.28;2.95;;;;;;;;;;5013572;28;20162;-61
2022/01/09 04:47:25;;;;;;;6.85;3.45;;;;;;;;;;5013568;28;20182;-61
2022/01/09 04:49:51;;;;;;;5.25;3.10;;;;;;;;;;5013159;28;20603;-60
2022/01/09 04:52:21;;;;;;;4.18;3.10;;;;;;;;;;5013498;28;20173;-61
2022/01/09 04:54:47;;;;;;;7.13;2.90;;;;;;;;;;5013135;28;20587;-60
2022/01/09 04:57:13;;;;;;;4.30;2.80;;;;;;;;;;5013667;28;20162;-61
2022/01/09 04:59:39;;;;;;;4.53;2.78;;;;;;;;;;5013204;28;20220;-61
2022/01/09 05:02:05;;;;;;;5.75;3.38;;;;;;;;;;5013226;28;20217;-61
2022/01/09 05:04:31;;;;;;;5.82;3.10;;;;;;;;;;5013714;28;20562;-60
2022/01/09 05:06:57;;;;;;;7.22;3.15;;;;;;;;;;5016757;28;20590;-60
2022/01/09 05:09:23;;;;;;;6.90;3.53;;;;;;;;;;5017268;28;20166;-60
2022/01/09 05:11:49;;;;;;;6.30;3.20;;;;;;;;;;5016568;28;20228;-59
2022/01/09 05:14:15;;;;;;;3.58;2.75;;;;;;;;;;5016802;28;20273;-60
2022/01/09 05:16:44;;;;;;;3.97;2.80;;;;;;;;;;5016449;28;20190;-60
2022/01/09 05:19:17;;;;;;;4.28;3.10;;;;;;;;;;5016797;28;20232;-59
2022/01/09 05:21:43;;;;;;;4.68;3.22;;;;;;;;;;5016677;28;20159;-60
2022/01/09 05:24:09;;;;;;;7.05;3.15;;;;;;;;;;5016398;28;20220;-60
2022/01/09 05:26:35;;;;;;;4.88;3.22;;;;;;;;;;5016319;28;20261;-60
2022/01/09 05:29:01;;;;;;;5.40;3.17;;;;;;;;;;5016322;28;20190;-60
2022/01/09 05:31:27;;;;;;;5.45;2.83;;;;;;;;;;5016842;28;20236;-61
2022/01/09 05:33:53;;;;;;;6.47;3.10;;;;;;;;;;5016176;28;20182;-61
2022/01/09 05:36:19;;;;;;;3.95;2.90;;;;;;;;;;5015893;28;20244;-59
2022/01/09 05:38:45;;;;;;;7.82;3.40;;;;;;;;;;5015994;28;20676;-61
2022/01/09 05:41:11;;;;;;;4.03;3.00;;;;;;;;;;5015861;28;20197;-61
2022/01/09 05:43:39;;;;;;;5.60;2.72;;;;;;;;;;5015901;28;20193;-60
2022/01/09 05:46:05;;;;;;;3.83;2.78;;;;;;;;;;5015801;28;20681;-60
2022/01/09 05:48:31;;;;;;;5.43;3.38;;;;;;;;;;5015875;28;20277;-60
2022/01/09 05:50:57;;;;;;;4.13;2.90;;;;;;;;;;5016568;28;20197;-60
2022/01/09 05:53:23;;;;;;;5.00;3.38;;;;;;;;;;5016036;28;20228;-60
2022/01/09 05:55:49;;;;;;;6.43;3.15;;;;;;;;;;5016275;28;20352;-59
2022/01/09 05:58:15;;;;;;;3.90;2.97;;;;;;;;;;5016448;28;20557;-57
2022/01/09 06:00:41;;;;;;;4.30;3.00;;;;;;;;;;5016612;28;20452;-61
2022/01/09 06:03:07;;;;;;;4.32;3.05;;;;;;;;;;5030794;28;20163;-61
2022/01/09 06:05:33;;;;;;;9.40;3.95;;;;;;;;;;5019885;28;20204;-61
2022/01/09 06:07:59;;;;;;;6.10;3.33;;;;;;;;;;5015483;28;20180;-61
2022/01/09 06:10:25;;;;;;;5.53;3.05;;;;;;;;;;5015363;28;20174;-61
2022/01/09 06:12:50;;;;;;;4.28;2.90;;;;;;;;;;5015645;28;20224;-61
2022/01/09 06:15:16;;;;;;;6.03;3.47;;;;;;;;;;5015031;28;20597;-61
2022/01/09 06:17:43;;;;;;;6.07;3.20;;;;;;;;;;5015306;28;20590;-60
2022/01/09 06:20:10;;;;;;;5.30;3.47;;;;;;;;;;5015557;28;20193;-61
2022/01/09 06:22:36;;;;;;;4.97;3.30;;;;;;;;;;5015368;28;20185;-60
2022/01/09 06:25:02;;;;;;;7.75;3.70;;;;;;;;;;5015193;28;20587;-61
2022/01/09 06:27:28;;;;;;;8.38;3.38;;;;;;;;;;5015061;28;20174;-61
2022/01/09 06:29:54;;;;;;;5.30;3.90;;;;;;;;;;5015349;28;20177;-61
2022/01/09 06:32:20;;;;;;;9.07;4.45;;;;;;;;;;5015227;28;20487;-60
2022/01/09 06:34:46;;;;;;;4.97;3.40;;;;;;;;;;5014963;28;20514;-61
2022/01/09 06:37:12;;;;;;;5.22;3.53;;;;;;;;;;5014965;28;20162;-61
2022/01/09 06:39:39;;;;;;;5.55;3.42;;;;;;;;;;5015237;28;20257;-60
2022/01/09 06:42:05;;;;;;;5.38;3.72;;;;;;;;;;5014916;28;20170;-61
2022/01/09 06:44:30;;;;;;;6.53;3.80;;;;;;;;;;5014861;28;20167;-61
2022/01/09 06:46:56;;;;;;;6.00;3.40;;;;;;;;;;5014779;28;20240;-60
2022/01/09 06:49:22;;;;;;;3.97;3.28;;;;;;;;;;5014746;28;20241;-61
2022/01/09 06:51:48;;;;;;;4.70;3.45;;;;;;;;;;5014670;28;20171;-61
2022/01/09 06:54:14;;;;;;;5.75;3.33;;;;;;;;;;5014678;28;20506;-61
2022/01/09 06:56:41;;;;;;;6.18;3.28;;;;;;;;;;5014391;28;20702;-61
2022/01/09 06:59:07;;;;;;;4.85;3.45;;;;;;;;;;5014640;28;20509;-60
2022/01/09 07:01:33;;;;;;;4.80;3.50;;;;;;;;;;5014905;28;20162;-59
2022/01/09 07:03:59;;;;;;;5.82;3.75;;;;;;;;;;5014774;28;20166;-60
2022/01/09 07:06:25;;;;;;;7.40;4.20;;;;;;;;;;4997261;28;20189;-60
2022/01/09 07:08:50;;;;;;;5.43;3.50;;;;;;;;;;5014509;28;20170;-60
2022/01/09 07:11:16;;;;;;;6.25;3.55;;;;;;;;;;5014540;28;20163;-60
2022/01/09 07:13:42;;;;;;;5.70;3.42;;;;;;;;;;5014336;28;20167;-60
2022/01/09 07:16:08;;;;;;;6.70;4.10;;;;;;;;;;5014189;28;20580;-59
2022/01/09 07:18:34;;;;;;;6.70;3.80;;;;;;;;;;5014583;28;20253;-60
2022/01/09 07:21:02;;;;;;;7.72;4.55;;;;;;;;;;5014262;28;20162;-60
2022/01/09 07:23:28;;;;;;;6.57;4.05;;;;;;;;;;5014462;28;20170;-60
2022/01/09 07:25:54;;;;;;;5.90;3.50;;;;;;;;;;5014298;28;20171;-59
2022/01/09 07:28:20;;;;;;;7.90;4.13;;;;;;;;;;5013596;28;20536;-59
2022/01/09 07:30:46;;;;;;;5.03;3.92;;;;;;;;;;5014067;28;20171;-59
2022/01/09 07:33:12;;;;;;;8.18;4.20;;;;;;;;;;5014450;28;20202;-59
2022/01/09 07:35:38;;;;;;;7.90;4.03;;;;;;;;;;5014321;28;20200;-59
2022/01/09 07:38:03;;;;;;;5.68;3.72;;;;;;;;;;5014250;28;20158;-59
2022/01/09 07:40:30;;;;;;;6.35;3.83;;;;;;;;;;5014286;28;20167;-59
2022/01/09 07:42:56;;;;;;;7.75;3.97;;;;;;;;;;5014453;28;20174;-60
2022/01/09 07:45:24;;;;;;;5.35;4.30;;;;;;;;;;5014210;28;20162;-60
2022/01/09 07:47:50;;;;;;;7.03;4.25;;;;;;;;;;5013925;28;20597;-60
2022/01/09 07:50:16;;;;;;;6.93;4.13;;;;;;;;;;5014068;28;20174;-59
2022/01/09 07:52:42;;;;;;;7.40;4.30;;;;;;;;;;5013773;28;20186;-59
2022/01/09 07:55:09;;;;;;;7.28;4.45;;;;;;;;;;5013712;28;20208;-59
2022/01/09 07:57:37;;;;;;;7.65;4.20;;;;;;;;;;5014161;28;20208;-60
2022/01/09 08:00:07;;;;;;;8.07;4.45;;;;;;;;;;5013828;28;20165;-60
2022/01/09 08:02:33;;;;;;;5.90;4.28;;;;;;;;;;5013769;28;20198;-60
2022/01/09 08:04:59;;;;;;;8.20;4.30;;;;;;;;;;5014142;28;20265;-59
2022/01/09 08:07:25;;;;;;;5.70;3.70;;;;;;;;;;5013685;28;20613;-60
2022/01/09 08:09:51;;;;;;;6.18;4.13;;;;;;;;;;5013642;28;20204;-60
2022/01/09 08:12:17;;;;;;;8.00;4.13;;;;;;;;;;5013637;28;20204;-60
2022/01/09 08:14:43;;;;;;;6.82;4.18;;;;;;;;;;5013991;28;20166;-59
2022/01/09 08:17:09;;;;;;;5.97;3.97;;;;;;;;;;5013766;28;20198;-59
2022/01/09 08:19:35;;;;;;;6.85;4.00;;;;;;;;;;5013654;28;20175;-60
2022/01/09 08:22:02;;;;;;;6.38;3.97;;;;;;;;;;5013533;28;20657;-59
2022/01/09 08:24:27;;;;;;;6.03;4.13;;;;;;;;;;5013931;28;20186;-61
2022/01/09 08:26:53;;;;;;;9.20;4.78;;;;;;;;;;5013485;28;20626;-61
2022/01/09 08:29:19;;;;;;;5.30;4.20;;;;;;;;;;5013472;28;20296;-60
2022/01/09 08:31:45;;;;;;;7.03;4.30;;;;;;;;;;5013642;28;20170;-61
2022/01/09 08:34:11;;;;;;;8.63;4.80;;;;;;;;;;5013843;28;20200;-60
2022/01/09 08:36:38;;;;;;;8.13;4.05;;;;;;;;;;5013388;28;20208;-60
2022/01/09 08:39:04;;;;;;;5.72;3.80;;;;;;;;;;5013510;28;20168;-60
2022/01/09 08:41:30;;;;;;;7.32;4.00;;;;;;;;;;5017235;28;20181;-60
2022/01/09 08:43:56;;;;;;;8.30;4.32;;;;;;;;;;5017158;28;20166;-59
2022/01/09 08:46:22;;;;;;;5.85;3.55;;;;;;;;;;5017547;28;20173;-60
2022/01/09 08:48:49;;;;;;;6.18;3.97;;;;;;;;;;5017083;28;20174;-59
2022/01/09 08:51:15;;;;;;;6.93;3.63;;;;;;;;;;5017367;28;20170;-61
2022/01/09 08:53:42;;;;;;;8.00;4.35;;;;;;;;;;5016841;28;20688;-61
2022/01/09 08:56:08;;;;;;;6.03;3.45;;;;;;;;;;5017090;28;20202;-61
2022/01/09 08:58:34;;;;;;;6.90;4.43;;;;;;;;;;5017012;28;20496;-61
2022/01/09 09:01:00;;;;;;;6.47;3.83;;;;;;;;;;5016853;28;20253;-61
2022/01/09 09:03:26;;;;;;;5.25;3.50;;;;;;;;;;5016635;28;20249;-61
2022/01/09 09:05:52;;;;;;;8.23;3.58;;;;;;;;;;5016777;28;20186;-60
2022/01/09 09:08:18;;;;;;;7.53;3.88;;;;;;;;;;5016817;28;20228;-60
2022/01/09 09:10:45;;;;;;;6.65;3.90;;;;;;;;;;5016542;28;20171;-60
2022/01/09 09:13:11;;;;;;;6.75;4.18;;;;;;;;;;5016803;28;20174;-61
2022/01/09 09:15:37;;;;;;;5.18;3.47;;;;;;;;;;5016459;28;20198;-61
2022/01/09 09:18:03;;;;;;;5.88;3.80;;;;;;;;;;5016389;28;20177;-60
2022/01/09 09:20:29;;;;;;;5.63;3.65;;;;;;;;;;5016344;28;20209;-61
2022/01/09 09:22:55;;;;;;;5.85;4.03;;;;;;;;;;5016205;28;20571;-61
2022/01/09 09:25:21;;;;;;;6.07;3.97;;;;;;;;;;5016305;28;20210;-61
2022/01/09 09:27:47;;;;;;;5.05;3.63;;;;;;;;;;5016383;28;20212;-61
2022/01/09 09:30:14;;;;;;;7.05;3.83;;;;;;;;;;5016141;28;20610;-61
2022/01/09 09:32:40;;;;;;;6.30;3.90;;;;;;;;;;5016306;28;20316;-61
2022/01/09 09:35:07;;;;;;;7.10;3.88;;;;;;;;;;5015971;28;20185;-61
2022/01/09 09:37:33;;;;;;;7.47;3.63;;;;;;;;;;5016102;28;20557;-61
2022/01/09 09:39:59;;;;;;;5.38;3.67;;;;;;;;;;5016236;28;20265;-60
2022/01/09 09:42:25;;;;;;;5.93;3.40;;;;;;;;;;5016243;28;20224;-60
2022/01/09 09:44:51;;;;;;;7.55;3.55;;;;;;;;;;5016348;28;20173;-60
2022/01/09 09:47:18;;;;;;;6.05;4.18;;;;;;;;;;5015869;28;20646;-61
2022/01/09 09:49:44;;;;;;;6.93;3.63;;;;;;;;;;5016168;28;20173;-60
2022/01/09 09:52:10;;;;;;;5.43;3.25;;;;;;;;;;5015503;28;20253;-61
2022/01/09 09:54:36;;;;;;;8.32;3.88;;;;;;;;;;5015859;28;20674;-60
2022/01/09 09:57:02;;;;;;;4.93;3.40;;;;;;;;;;5015680;28;20266;-61
2022/01/09 09:59:35;;;;;;;6.10;3.83;;;;;;;;;;5015939;28;20168;-60
2022/01/09 10:02:01;;;;;;;4.68;3.55;;;;;;;;;;5015847;28;20158;-61
2022/01/09 10:04:27;;;;;;;6.72;4.22;;;;;;;;;;5015814;28;20659;-60
2022/01/09 10:06:53;;;;;;;7.38;4.20;;;;;;;;;;5015484;28;20170;-60
2022/01/09 10:09:20;;;;;;;7.43;3.92;;;;;;;;;;5015726;28;20169;-61
2022/01/09 10:11:49;;;;;;;7.30;4.38;;;;;;;;;;5015629;28;20184;-60
2022/01/09 10:14:16;;;;;;;9.25;4.32;;;;;;;;;;5015535;28;20239;-61
2022/01/09 10:16:42;;;;;;;5.30;3.78;;;;;;;;;;5015589;28;20205;-60
2022/01/09 10:19:08;;;;;;;5.15;3.80;;;;;;;;;;5015452;28;20174;-60
2022/01/09 10:21:34;;;;;;;6.47;4.35;;;;;;;;;;5015515;28;20209;-60
2022/01/09 10:24:07;;;;;;;6.03;3.72;;;;;;;;;;5015367;28;20162;-60
2022/01/09 10:26:38;;;;;;;4.85;3.45;;;;;;;;;;5015461;28;20189;-60
2022/01/09 10:29:04;;;;;;;6.05;3.75;;;;;;;;;;5014995;28;20221;-60
2022/01/09 10:31:30;;;;;;;9.60;4.00;;;;;;;;;;5015391;28;20185;-60
2022/01/09 10:34:01;;;;;;;5.95;3.92;;;;;;;;;;5015123;28;20181;-61
2022/01/09 10:36:38;;;;;;;7.57;4.20;;;;;;;;;;5015158;28;20364;-61
2022/01/09 10:39:05;;;;;;;5.63;3.47;;;;;;;;;;5014898;28;20486;-61
2022/01/09 10:41:46;;;;;;;5.35;3.90;;;;;;;;;;5014754;28;20163;-61
2022/01/09 10:44:16;;;;;;;7.47;4.07;;;;;;;;;;5014788;28;20167;-61
2022/01/09 10:46:52;;;;;;;6.30;3.60;;;;;;;;;;5014654;28;20221;-61
2022/01/09 10:49:18;;;;;;;5.13;3.90;;;;;;;;;;5014573;28;20158;-60
2022/01/09 10:51:44;;;;;;;5.45;3.75;;;;;;;;;;5014466;28;20641;-61
2022/01/09 10:54:09;;;;;;;6.88;4.10;;;;;;;;;;5014283;28;20185;-61
2022/01/09 10:56:35;;;;;;;6.55;4.10;;;;;;;;;;5014282;28;20209;-61
2022/01/09 10:59:01;;;;;;;6.70;3.97;;;;;;;;;;5014230;28;20249;-61
2022/01/09 11:01:28;;;;;;;6.63;4.22;;;;;;;;;;5014636;28;20244;-61
2022/01/09 11:03:57;;;;;;;5.93;4.15;;;;;;;;;;5013715;28;20247;-61
2022/01/09 11:06:24;;;;;;;7.40;4.03;;;;;;;;;;5014374;28;20591;-60
2022/01/09 11:08:50;;;;;;;7.10;4.15;;;;;;;;;;5014329;28;20174;-61
2022/01/09 11:11:23;;;;;;;5.22;3.95;;;;;;;;;;5014441;28;20248;-61
2022/01/09 11:13:51;;;;;;;6.22;3.78;;;;;;;;;;5014295;28;20238;-61
2022/01/09 11:16:34;;;;;;;7.35;4.38;;;;;;;;;;5014032;28;20569;-61
2022/01/09 11:19:05;;;;;;;5.43;3.60;;;;;;;;;;5014230;28;20161;-60
2022/01/09 11:21:31;;;;;;;6.78;3.92;;;;;;;;;;5013949;28;20594;-60
2022/01/09 11:24:21;;;;;;;6.57;3.65;;;;;;;;;;5014067;28;20182;-61
2022/01/09 11:27:01;;;;;;;7.82;4.40;;;;;;;;;;5013943;28;20189;-61
2022/01/09 11:29:31;;;;;;;6.03;4.15;;;;;;;;;;5013988;28;20178;-61
2022/01/09 11:32:07;;;;;;;6.95;3.83;;;;;;;;;;5013784;28;20205;-61
2022/01/09 11:34:51;;;;;;;5.85;3.60;;;;;;;;;;5013863;28;20182;-61
2022/01/09 11:37:23;;;;;;;4.68;3.70;;;;;;;;;;5013656;28;20247;-61
2022/01/09 11:39:49;;;;;;;5.30;4.00;;;;;;;;;;5013697;28;20653;-61
2022/01/09 11:42:16;;;;;;;6.78;4.32;;;;;;;;;;5013718;28;20605;-61
2022/01/09 11:44:46;;;;;;;7.70;4.25;;;;;;;;;;5013656;28;20166;-61
2022/01/09 11:47:12;;;;;;;4.93;3.45;;;;;;;;;;5013983;28;20216;-61
2022/01/09 11:49:40;;;;;;;5.95;3.70;;;;;;;;;;5013833;28;20170;-61
2022/01/09 11:52:08;;;;;;;5.68;4.30;;;;;;;;;;5013509;28;20622;-61
2022/01/09 11:54:48;;;;;;;6.57;3.90;;;;;;;;;;5013368;28;20186;-61
2022/01/09 11:57:20;;;;;;;6.43;3.95;;;;;;;;;;5013655;28;20198;-61
2022/01/09 11:59:48;;;;;;;7.35;4.18;;;;;;;;;;5013747;28;20154;-61
2022/01/09 12:02:17;;;;;;;5.88;3.83;;;;;;;;;;5013743;28;20170;-61
2022/01/09 12:04:47;;;;;;;7.32;4.03;;;;;;;;;;5013432;28;20603;-61
2022/01/09 12:07:20;;;;;;;5.55;4.00;;;;;;;;;;5013641;28;20224;-60
2022/01/09 12:09:48;;;;;;;7.53;4.70;;;;;;;;;;5013576;28;20272;-61
2022/01/09 12:12:17;;;;;;;5.25;4.13;;;;;;;;;;5013342;28;20669;-61
2022/01/09 12:14:55;;;;;;;9.10;3.97;;;;;;;;;;5015991;28;20188;-61
2022/01/09 12:17:21;;;;;;;5.70;3.97;;;;;;;;;;5017666;28;20158;-61
2022/01/09 12:20:02;;;;;;;5.22;3.67;;;;;;;;;;5017315;28;20464;-61
2022/01/09 12:25:06;;;;;;;7.20;4.00;;;;;;;;;;5017451;28;20236;-60
2022/01/09 12:27:35;;;;;;;6.05;4.13;;;;;;;;;;5017295;28;20169;-61
2022/01/09 12:30:02;;;;;;;6.68;4.25;;;;;;;;;;5017017;28;20178;-61
2022/01/09 12:32:41;;;;;;;5.47;3.88;;;;;;;;;;5017107;28;20584;-61
2022/01/09 12:35:18;;;;;;;5.85;3.90;;;;;;;;;;5016948;28;20617;-61
2022/01/09 12:37:48;;;;;;;7.35;4.05;;;;;;;;;;5017045;28;20192;-61
2022/01/09 12:40:17;;;;;;;5.90;4.00;;;;;;;;;;5016982;28;20590;-61
2022/01/09 12:42:46;;;;;;;6.28;3.80;;;;;;;;;;5017087;28;20194;-61
2022/01/09 12:45:12;;;;;;;6.63;3.83;;;;;;;;;;5017161;28;20170;-61
2022/01/09 12:47:40;;;;;;;6.22;4.07;;;;;;;;;;5016901;28;20677;-61
2022/01/09 12:50:05;;;;;;;6.75;4.30;;;;;;;;;;5016980;28;20178;-61
2022/01/09 12:52:31;;;;;;;5.93;3.92;;;;;;;;;;5016768;28;20764;-61
2022/01/09 12:55:07;;;;;;;6.93;4.22;;;;;;;;;;5016778;28;20169;-61
2022/01/09 12:57:52;;;;;;;5.57;3.63;;;;;;;;;;5017277;28;20170;-61
2022/01/09 13:00:28;;;;;;;6.38;4.00;;;;;;;;;;5016503;28;20168;-61
2022/01/09 13:02:55;;;;;;;5.78;3.80;;;;;;;;;;5016931;28;20165;-61
2022/01/09 13:05:25;;;;;;;6.30;4.32;;;;;;;;;;5016660;28;20182;-61
2022/01/09 13:07:58;;;;;;;5.90;4.15;;;;;;;;;;5017259;28;20170;-61
2022/01/09 13:10:31;;;;;;;6.22;3.65;;;;;;;;;;5016580;28;20698;-61
2022/01/09 13:13:00;;;;;;;6.32;4.18;;;;;;;;;;5016409;28;20344;-61
2022/01/09 13:15:33;;;;;;;5.22;3.50;;;;;;;;;;5016530;28;20194;-60
2022/01/09 13:17:59;;;;;;;6.20;4.55;;;;;;;;;;5016729;28;20162;-61
2022/01/09 13:20:25;;;;;;;8.30;4.40;;;;;;;;;;5016592;28;20177;-61
2022/01/09 13:23:07;;;;;;;7.93;4.30;;;;;;;;;;5016370;28;20245;-61
2022/01/09 13:25:43;;;;;;;5.43;4.00;;;;;;;;;;5015326;28;20213;-61
2022/01/09 13:28:19;;;;;;;7.38;3.83;;;;;;;;;;5016790;28;20303;-61
2022/01/09 13:30:45;;;;;;;5.78;3.85;;;;;;;;;;5016234;28;20162;-61
2022/01/09 13:33:11;;;;;;;6.38;3.72;;;;;;;;;;5016387;28;20501;-61
2022/01/09 13:35:37;;;;;;;9.07;4.13;;;;;;;;;;5016206;28;20197;-61
2022/01/09 13:38:03;;;;;;;6.85;3.53;;;;;;;;;;5016510;28;20165;-61
2022/01/09 13:40:29;;;;;;;7.47;3.78;;;;;;;;;;5016136;28;20554;-61
2022/01/09 13:42:55;;;;;;;6.50;3.97;;;;;;;;;;5016144;28;20174;-61
2022/01/09 13:45:22;;;;;;;7.32;4.25;;;;;;;;;;5016060;28;20173;-61
2022/01/09 13:47:52;;;;;;;7.70;4.43;;;;;;;;;;5016107;28;20189;-61
2022/01/09 13:50:23;;;;;;;6.53;4.45;;;;;;;;;;5015744;28;20620;-61
2022/01/09 13:52:50;;;;;;;5.80;4.63;;;;;;;;;;5015885;28;20186;-61
2022/01/09 13:55:19;;;;;;;7.90;4.65;;;;;;;;;;5015942;28;20178;-60
2022/01/09 13:58:03;;;;;;;7.82;4.47;;;;;;;;;;5016239;28;20185;-60
2022/01/09 14:00:29;;;;;;;7.15;4.00;;;;;;;;;;5015809;28;20146;-60
2022/01/09 14:02:57;;;;;;;5.70;4.13;;;;;;;;;;5015663;28;20622;-60
2022/01/09 14:05:24;;;;;;;6.32;3.90;;;;;;;;;;5016293;28;20174;-61
2022/01/09 14:07:55;;;;;;;6.22;4.57;;;;;;;;;;5015793;28;20556;-61
2022/01/09 14:10:21;;;;;;;5.38;3.90;;;;;;;;;;5016207;28;20162;-60
2022/01/09 14:12:47;;;;;;;7.38;4.00;;;;;;;;;;5015763;28;20178;-61
2022/01/09 14:15:17;;;;;;;6.13;4.43;;;;;;;;;;5016025;28;20170;-61
2022/01/09 14:17:44;;;;;;;5.85;4.20;;;;;;;;;;5015825;28;20181;-61
2022/01/09 14:20:16;;;;;;;6.60;4.25;;;;;;;;;;5015785;28;20662;-61
2022/01/09 14:22:43;;;;;;;7.28;4.53;;;;;;;;;;5015638;28;20196;-60
2022/01/09 14:25:14;;;;;;;7.85;4.22;;;;;;;;;;5015659;28;20227;-61
2022/01/09 14:27:44;;;;;;;6.20;4.07;;;;;;;;;;5015359;28;20151;-60
2022/01/09 14:30:22;;;;;;;5.95;4.30;;;;;;;;;;5015770;28;20155;-60
2022/01/09 14:32:51;;;;;;;5.93;4.32;;;;;;;;;;5015681;28;20197;-60
2022/01/09 14:35:27;;;;;;;7.35;4.28;;;;;;;;;;5015810;28;20357;-59
2022/01/09 14:37:58;;;;;;;6.88;4.18;;;;;;;;;;5018403;28;20162;-61
2022/01/09 14:40:24;;;;;;;7.80;3.97;;;;;;;;;;5025104;28;20159;-59
2022/01/09 14:42:50;;;;;;;5.38;4.05;;;;;;;;;;5015710;28;20610;-61
2022/01/09 14:45:16;;;;;;;6.97;4.30;;;;;;;;;;5015669;28;20162;-61
2022/01/09 14:47:42;;;;;;;9.43;4.50;;;;;;;;;;5015823;28;20202;-60